DZH402 DAAG-LGMK
Flight info
| Callsign | DZH402 |
|---|---|
| Flight time | 2h 30m |
| Altitude | 35000 |
| Route | BABOR1B BABOR UA31 TBS UM980 BASMO/N0432F290 M980 GZO M978 BINKO DCT MONUV UP32 MIL UR32 GENDO R32 DIDIS |
| Aircraft | A321/M-SDE3FGHIRWY/LB1 |
Departure
| Time | 2026-04-29 18:33 |
|---|---|
| Airport | Houari Boumediene Airport (DAAG) |
Arrival
| Time | 2026-04-29 21:04 |
|---|---|
| Airport | Mykonos Island National Airport (LGMK) |
| Time | Latitude | Longitude | Altitude | Speed | Heading |
|---|---|---|---|---|---|
| 2026-04-29 17:42 | 36.69683 | 3.20130 | 61 ft | 0 kts | 89° |
| 2026-04-29 18:25 | 36.69683 | 3.20101 | 66 ft | 4 kts | 92° |
| 2026-04-29 18:25 | 36.69684 | 3.20068 | 64 ft | 4 kts | 97° |
| 2026-04-29 18:25 | 36.69689 | 3.20035 | 63 ft | 4 kts | 105° |
| 2026-04-29 18:25 | 36.69698 | 3.20004 | 63 ft | 4 kts | 130° |
| 2026-04-29 18:26 | 36.69714 | 3.19991 | 61 ft | 1 kts | 182° |
| 2026-04-29 18:26 | 36.69718 | 3.19991 | 62 ft | 0 kts | 182° |
| 2026-04-29 18:28 | 36.69710 | 3.19991 | 61 ft | 5 kts | 182° |
| 2026-04-29 18:28 | 36.69665 | 3.19989 | 67 ft | 6 kts | 182° |
| 2026-04-29 18:28 | 36.69625 | 3.19987 | 70 ft | 7 kts | 182° |
| 2026-04-29 18:29 | 36.69567 | 3.19985 | 70 ft | 9 kts | 182° |
| 2026-04-29 18:29 | 36.69504 | 3.19982 | 70 ft | 9 kts | 182° |
| 2026-04-29 18:29 | 36.69452 | 3.20036 | 68 ft | 12 kts | 113° |
| 2026-04-29 18:29 | 36.69449 | 3.20153 | 62 ft | 14 kts | 91° |
| 2026-04-29 18:30 | 36.69448 | 3.20266 | 63 ft | 11 kts | 91° |
| 2026-04-29 18:30 | 36.69448 | 3.20315 | 68 ft | 5 kts | 91° |
| 2026-04-29 18:30 | 36.69447 | 3.20357 | 67 ft | 6 kts | 91° |
| 2026-04-29 18:30 | 36.69444 | 3.20455 | 70 ft | 16 kts | 92° |
| 2026-04-29 18:31 | 36.69440 | 3.20625 | 70 ft | 20 kts | 91° |
| 2026-04-29 18:31 | 36.69437 | 3.20780 | 68 ft | 15 kts | 91° |
| 2026-04-29 18:31 | 36.69385 | 3.20878 | 65 ft | 15 kts | 156° |
| 2026-04-29 18:31 | 36.69293 | 3.20925 | 63 ft | 13 kts | 162° |
| 2026-04-29 18:32 | 36.69212 | 3.20954 | 67 ft | 11 kts | 163° |
| 2026-04-29 18:32 | 36.69116 | 3.20930 | 74 ft | 8 kts | 253° |
| 2026-04-29 18:32 | 36.69115 | 3.20849 | 75 ft | 19 kts | 270° |
| 2026-04-29 18:33 | 36.69125 | 3.20366 | 76 ft | 92 kts | 272° |
| 2026-04-29 18:33 | 36.69152 | 3.19314 | 71 ft | 148 kts | 272° |
| 2026-04-29 18:33 | 36.69195 | 3.17858 | 152 ft | 184 kts | 273° |
| 2026-04-29 18:33 | 36.69241 | 3.16287 | 737 ft | 180 kts | 272° |
| 2026-04-29 18:34 | 36.69270 | 3.14696 | 1250 ft | 187 kts | 272° |
| 2026-04-29 18:34 | 36.69283 | 3.13610 | 1617 ft | 184 kts | 272° |
| 2026-04-29 18:34 | 36.69297 | 3.11475 | 2141 ft | 189 kts | 272° |
| 2026-04-29 18:34 | 36.69303 | 3.09778 | 2327 ft | 204 kts | 272° |
| 2026-04-29 18:35 | 36.69267 | 3.07907 | 2448 ft | 224 kts | 263° |
| 2026-04-29 18:35 | 36.68848 | 3.05959 | 2574 ft | 250 kts | 247° |
| 2026-04-29 18:35 | 36.67902 | 3.04051 | 2995 ft | 265 kts | 229° |
| 2026-04-29 18:35 | 36.66495 | 3.02522 | 3714 ft | 267 kts | 211° |
| 2026-04-29 18:36 | 36.64819 | 3.01597 | 4479 ft | 267 kts | 194° |
| 2026-04-29 18:36 | 36.62973 | 3.01333 | 5204 ft | 268 kts | 177° |
| 2026-04-29 18:36 | 36.61140 | 3.01790 | 5901 ft | 272 kts | 160° |
| 2026-04-29 18:36 | 36.59487 | 3.02956 | 6515 ft | 278 kts | 142° |
| 2026-04-29 18:37 | 36.58180 | 3.04763 | 7090 ft | 285 kts | 123° |
| 2026-04-29 18:37 | 36.57389 | 3.07044 | 7674 ft | 292 kts | 104° |
| 2026-04-29 18:37 | 36.57244 | 3.09573 | 8268 ft | 298 kts | 84° |
| 2026-04-29 18:37 | 36.57640 | 3.12122 | 8864 ft | 303 kts | 78° |
| 2026-04-29 18:38 | 36.58075 | 3.14708 | 9488 ft | 307 kts | 78° |
| 2026-04-29 18:38 | 36.58505 | 3.17320 | 10077 ft | 311 kts | 79° |
| 2026-04-29 18:38 | 36.58947 | 3.20040 | 10259 ft | 332 kts | 79° |
| 2026-04-29 18:38 | 36.59417 | 3.22948 | 10374 ft | 352 kts | 79° |
| 2026-04-29 18:39 | 36.59908 | 3.25998 | 10647 ft | 366 kts | 79° |
| 2026-04-29 18:39 | 36.60411 | 3.29126 | 11163 ft | 371 kts | 79° |
| 2026-04-29 18:39 | 36.60918 | 3.32290 | 11728 ft | 374 kts | 79° |
| 2026-04-29 18:39 | 36.61428 | 3.35476 | 12266 ft | 378 kts | 79° |
| 2026-04-29 18:40 | 36.61946 | 3.38704 | 12846 ft | 382 kts | 79° |
| 2026-04-29 18:40 | 36.62469 | 3.41951 | 13436 ft | 385 kts | 79° |
| 2026-04-29 18:40 | 36.62997 | 3.45232 | 13999 ft | 388 kts | 79° |
| 2026-04-29 18:40 | 36.63529 | 3.48539 | 14508 ft | 392 kts | 79° |
| 2026-04-29 18:41 | 36.65076 | 3.58648 | 16078 ft | 401 kts | 85° |
| 2026-04-29 18:41 | 36.65160 | 3.62122 | 16556 ft | 403 kts | 94° |
| 2026-04-29 18:42 | 36.64889 | 3.65603 | 17057 ft | 405 kts | 100° |
| 2026-04-29 18:42 | 36.64407 | 3.69066 | 17548 ft | 407 kts | 103° |
| 2026-04-29 18:42 | 36.63847 | 3.72528 | 18030 ft | 410 kts | 103° |
| 2026-04-29 18:42 | 36.63294 | 3.76029 | 18487 ft | 413 kts | 102° |
| 2026-04-29 18:43 | 36.62791 | 3.79567 | 18911 ft | 416 kts | 101° |
| 2026-04-29 18:43 | 36.62344 | 3.83130 | 19307 ft | 419 kts | 99° |
| 2026-04-29 18:43 | 36.61935 | 3.86694 | 19705 ft | 422 kts | 99° |
| 2026-04-29 18:43 | 36.61533 | 3.90362 | 20124 ft | 424 kts | 98° |
| 2026-04-29 18:44 | 36.61138 | 3.94014 | 20527 ft | 426 kts | 99° |
| 2026-04-29 18:44 | 36.60741 | 3.97627 | 20938 ft | 429 kts | 99° |
| 2026-04-29 18:44 | 36.60327 | 4.01316 | 21355 ft | 431 kts | 99° |
| 2026-04-29 18:44 | 36.59901 | 4.05018 | 21755 ft | 434 kts | 99° |
| 2026-04-29 18:45 | 36.59458 | 4.08790 | 22163 ft | 436 kts | 99° |
| 2026-04-29 18:45 | 36.59019 | 4.12483 | 22548 ft | 438 kts | 100° |
| 2026-04-29 18:45 | 36.58575 | 4.16239 | 22928 ft | 441 kts | 99° |
| 2026-04-29 18:45 | 36.58130 | 4.20025 | 23316 ft | 443 kts | 99° |
| 2026-04-29 18:46 | 36.57683 | 4.23843 | 23638 ft | 447 kts | 99° |
| 2026-04-29 18:46 | 36.57232 | 4.27664 | 23941 ft | 449 kts | 99° |
| 2026-04-29 18:46 | 36.56774 | 4.31523 | 24238 ft | 452 kts | 99° |
| 2026-04-29 18:46 | 36.56312 | 4.35403 | 24547 ft | 454 kts | 99° |
| 2026-04-29 18:47 | 36.55845 | 4.39297 | 24845 ft | 457 kts | 99° |
| 2026-04-29 18:47 | 36.55370 | 4.43224 | 25128 ft | 460 kts | 99° |
| 2026-04-29 18:47 | 36.54897 | 4.47164 | 25430 ft | 462 kts | 99° |
| 2026-04-29 18:47 | 36.54424 | 4.51135 | 25706 ft | 465 kts | 99° |
| 2026-04-29 18:48 | 36.53949 | 4.55123 | 25982 ft | 467 kts | 99° |
| 2026-04-29 18:48 | 36.53468 | 4.59134 | 26239 ft | 470 kts | 99° |
| 2026-04-29 18:48 | 36.52980 | 4.63166 | 26474 ft | 474 kts | 99° |
| 2026-04-29 18:48 | 36.52484 | 4.67231 | 26732 ft | 476 kts | 99° |
| 2026-04-29 18:49 | 36.51983 | 4.71304 | 27001 ft | 479 kts | 99° |
| 2026-04-29 18:49 | 36.51480 | 4.75405 | 27278 ft | 482 kts | 99° |
| 2026-04-29 18:49 | 36.50973 | 4.79540 | 27549 ft | 484 kts | 99° |
| 2026-04-29 18:49 | 36.50465 | 4.83686 | 27782 ft | 487 kts | 99° |
| 2026-04-29 18:50 | 36.49953 | 4.87841 | 28048 ft | 489 kts | 99° |
| 2026-04-29 18:50 | 36.49436 | 4.92027 | 28296 ft | 491 kts | 99° |
| 2026-04-29 18:50 | 36.48913 | 4.96243 | 28525 ft | 494 kts | 99° |
| 2026-04-29 18:50 | 36.48389 | 5.00466 | 28734 ft | 497 kts | 99° |
| 2026-04-29 18:51 | 36.47873 | 5.04715 | 28962 ft | 499 kts | 98° |
| 2026-04-29 18:51 | 36.47375 | 5.08996 | 29195 ft | 501 kts | 98° |
| 2026-04-29 18:51 | 36.46888 | 5.13292 | 29413 ft | 504 kts | 98° |
| 2026-04-29 18:51 | 36.46401 | 5.17605 | 29623 ft | 506 kts | 98° |
| 2026-04-29 18:52 | 36.45906 | 5.21950 | 29861 ft | 508 kts | 98° |
| 2026-04-29 18:52 | 36.45404 | 5.26303 | 30063 ft | 511 kts | 98° |
| 2026-04-29 18:52 | 36.44891 | 5.30669 | 30330 ft | 510 kts | 98° |
| 2026-04-29 18:52 | 36.44375 | 5.35019 | 30633 ft | 509 kts | 98° |
| 2026-04-29 18:53 | 36.43857 | 5.39365 | 30937 ft | 509 kts | 98° |
| 2026-04-29 18:53 | 36.43338 | 5.43713 | 31234 ft | 508 kts | 98° |
| 2026-04-29 18:53 | 36.42820 | 5.48055 | 31516 ft | 508 kts | 98° |
| 2026-04-29 18:53 | 36.42305 | 5.52386 | 31821 ft | 507 kts | 99° |
| 2026-04-29 18:54 | 36.41789 | 5.56704 | 32091 ft | 507 kts | 98° |
| 2026-04-29 18:54 | 36.41271 | 5.61037 | 32387 ft | 506 kts | 98° |
| 2026-04-29 18:54 | 36.40752 | 5.65357 | 32666 ft | 506 kts | 98° |
| 2026-04-29 18:54 | 36.40231 | 5.69671 | 32981 ft | 505 kts | 99° |
| 2026-04-29 18:55 | 36.39705 | 5.73986 | 33267 ft | 504 kts | 99° |
| 2026-04-29 18:55 | 36.39186 | 5.78238 | 33576 ft | 503 kts | 99° |
| 2026-04-29 18:55 | 36.38657 | 5.82572 | 33855 ft | 503 kts | 99° |
| 2026-04-29 18:55 | 36.38140 | 5.86814 | 34094 ft | 503 kts | 99° |
| 2026-04-29 18:56 | 36.37631 | 5.91111 | 34321 ft | 503 kts | 99° |
| 2026-04-29 18:56 | 36.37128 | 5.95456 | 34531 ft | 502 kts | 98° |
| 2026-04-29 18:56 | 36.36641 | 5.99688 | 34744 ft | 502 kts | 99° |
| 2026-04-29 18:56 | 36.36146 | 6.03975 | 34914 ft | 503 kts | 99° |
| 2026-04-29 18:57 | 36.35149 | 6.12544 | 34965 ft | 501 kts | 99° |
| 2026-04-29 18:57 | 36.34131 | 6.21106 | 34963 ft | 502 kts | 99° |
| 2026-04-29 18:58 | 36.33095 | 6.29695 | 34966 ft | 509 kts | 99° |
| 2026-04-29 18:58 | 36.32039 | 6.38451 | 34965 ft | 517 kts | 99° |
| 2026-04-29 18:59 | 36.30973 | 6.47292 | 34975 ft | 519 kts | 100° |
| 2026-04-29 18:59 | 36.29824 | 6.56124 | 34966 ft | 518 kts | 105° |
| 2026-04-29 19:00 | 36.27238 | 6.64363 | 35029 ft | 510 kts | 124° |
| 2026-04-29 19:00 | 36.23283 | 6.71600 | 35031 ft | 507 kts | 129° |
| 2026-04-29 19:01 | 36.19232 | 6.78767 | 35021 ft | 508 kts | 129° |
| 2026-04-29 19:01 | 36.15194 | 6.85929 | 35008 ft | 508 kts | 129° |
| 2026-04-29 19:02 | 36.11833 | 6.91888 | 35004 ft | 507 kts | 129° |
| 2026-04-29 19:02 | 36.07098 | 7.00237 | 34998 ft | 507 kts | 129° |
| 2026-04-29 19:03 | 36.03050 | 7.07363 | 34979 ft | 507 kts | 130° |
| 2026-04-29 19:03 | 35.98983 | 7.14506 | 34982 ft | 508 kts | 130° |
| 2026-04-29 19:04 | 35.94944 | 7.21591 | 34987 ft | 508 kts | 130° |
| 2026-04-29 19:04 | 35.90877 | 7.28710 | 34992 ft | 509 kts | 130° |
| 2026-04-29 19:05 | 35.86791 | 7.35843 | 34996 ft | 509 kts | 130° |
| 2026-04-29 19:05 | 35.82703 | 7.42958 | 35002 ft | 509 kts | 130° |
| 2026-04-29 19:06 | 35.78612 | 7.50071 | 35007 ft | 509 kts | 130° |
| 2026-04-29 19:07 | 35.72457 | 7.60734 | 35014 ft | 509 kts | 130° |
| 2026-04-29 19:07 | 35.68355 | 7.67837 | 35020 ft | 509 kts | 130° |
| 2026-04-29 19:08 | 35.64255 | 7.74930 | 35022 ft | 509 kts | 130° |
| 2026-04-29 19:08 | 35.60140 | 7.82025 | 35041 ft | 509 kts | 130° |
| 2026-04-29 19:09 | 35.56019 | 7.89106 | 35064 ft | 509 kts | 130° |
| 2026-04-29 19:09 | 35.51886 | 7.96187 | 35083 ft | 509 kts | 130° |
| 2026-04-29 19:10 | 35.48198 | 8.03571 | 35084 ft | 518 kts | 116° |
| 2026-04-29 19:10 | 35.47061 | 8.07780 | 35089 ft | 523 kts | 105° |
| 2026-04-29 19:10 | 35.46523 | 8.12240 | 35090 ft | 526 kts | 94° |
| 2026-04-29 19:10 | 35.46615 | 8.16683 | 35090 ft | 527 kts | 83° |
| 2026-04-29 19:11 | 35.47060 | 8.21150 | 35091 ft | 528 kts | 83° |
| 2026-04-29 19:11 | 35.47925 | 8.30081 | 35089 ft | 528 kts | 83° |
| 2026-04-29 19:12 | 35.48765 | 8.39022 | 35070 ft | 527 kts | 84° |
| 2026-04-29 19:12 | 35.49599 | 8.47944 | 35051 ft | 526 kts | 84° |
| 2026-04-29 19:13 | 35.50433 | 8.56855 | 35053 ft | 525 kts | 84° |
| 2026-04-29 19:13 | 35.51270 | 8.65751 | 35056 ft | 525 kts | 84° |
| 2026-04-29 19:14 | 35.52105 | 8.74661 | 35057 ft | 525 kts | 84° |
| 2026-04-29 19:14 | 35.52919 | 8.83575 | 35046 ft | 526 kts | 84° |
| 2026-04-29 19:15 | 35.53727 | 8.92503 | 35045 ft | 526 kts | 84° |
| 2026-04-29 19:15 | 35.54531 | 9.01430 | 35047 ft | 527 kts | 85° |
| 2026-04-29 19:16 | 35.55205 | 9.08872 | 35047 ft | 527 kts | 83° |
| 2026-04-29 19:16 | 35.56282 | 9.17785 | 35037 ft | 528 kts | 81° |
| 2026-04-29 19:17 | 35.57533 | 9.26681 | 35029 ft | 529 kts | 81° |
| 2026-04-29 19:17 | 35.58737 | 9.35575 | 35031 ft | 529 kts | 82° |
| 2026-04-29 19:18 | 35.59858 | 9.44520 | 35031 ft | 529 kts | 82° |
| 2026-04-29 19:18 | 35.60948 | 9.53460 | 35024 ft | 530 kts | 82° |
| 2026-04-29 19:19 | 35.62056 | 9.62418 | 35023 ft | 530 kts | 82° |
| 2026-04-29 19:19 | 35.63176 | 9.71374 | 35017 ft | 531 kts | 82° |
| 2026-04-29 19:20 | 35.64285 | 9.80290 | 35019 ft | 531 kts | 82° |
| 2026-04-29 19:20 | 35.65387 | 9.89307 | 35013 ft | 531 kts | 82° |
| 2026-04-29 19:21 | 35.66474 | 9.98235 | 35018 ft | 531 kts | 82° |
| 2026-04-29 19:21 | 35.67561 | 10.07201 | 35021 ft | 531 kts | 82° |
| 2026-04-29 19:22 | 35.68640 | 10.16188 | 35016 ft | 531 kts | 82° |
| 2026-04-29 19:22 | 35.69707 | 10.25179 | 35015 ft | 531 kts | 82° |
| 2026-04-29 19:23 | 35.70763 | 10.34149 | 35019 ft | 530 kts | 82° |
| 2026-04-29 19:23 | 35.71816 | 10.43132 | 35032 ft | 530 kts | 82° |
| 2026-04-29 19:24 | 35.72869 | 10.52118 | 35020 ft | 530 kts | 82° |
| 2026-04-29 19:24 | 35.73910 | 10.61086 | 35010 ft | 530 kts | 82° |
| 2026-04-29 19:25 | 35.74949 | 10.70074 | 35030 ft | 530 kts | 82° |
| 2026-04-29 19:25 | 35.75961 | 10.79070 | 35017 ft | 530 kts | 83° |
| 2026-04-29 19:26 | 35.76827 | 10.88086 | 35033 ft | 530 kts | 84° |
| 2026-04-29 19:26 | 35.77626 | 10.97085 | 35027 ft | 529 kts | 84° |
| 2026-04-29 19:27 | 35.78443 | 11.06080 | 35024 ft | 529 kts | 84° |
| 2026-04-29 19:27 | 35.79285 | 11.15068 | 35023 ft | 528 kts | 84° |
| 2026-04-29 19:28 | 35.80130 | 11.24057 | 35021 ft | 528 kts | 84° |
| 2026-04-29 19:28 | 35.80964 | 11.33048 | 35016 ft | 528 kts | 84° |
| 2026-04-29 19:29 | 35.81793 | 11.42047 | 35020 ft | 528 kts | 84° |
| 2026-04-29 19:29 | 35.82597 | 11.51031 | 35024 ft | 528 kts | 84° |
| 2026-04-29 19:30 | 35.83400 | 11.60031 | 35026 ft | 528 kts | 84° |
| 2026-04-29 19:30 | 35.84206 | 11.69040 | 35012 ft | 528 kts | 84° |
| 2026-04-29 19:31 | 35.85003 | 11.78047 | 35028 ft | 528 kts | 84° |
| 2026-04-29 19:31 | 35.85787 | 11.87049 | 35025 ft | 528 kts | 84° |
| 2026-04-29 19:32 | 35.86555 | 11.95991 | 35027 ft | 528 kts | 84° |
| 2026-04-29 19:32 | 35.87319 | 12.04993 | 35033 ft | 528 kts | 84° |
| 2026-04-29 19:33 | 35.88081 | 12.13995 | 35027 ft | 528 kts | 84° |
| 2026-04-29 19:33 | 35.88842 | 12.22983 | 35043 ft | 527 kts | 84° |
| 2026-04-29 19:34 | 35.89590 | 12.31972 | 35042 ft | 527 kts | 84° |
| 2026-04-29 19:34 | 35.90335 | 12.40958 | 35024 ft | 527 kts | 84° |
| 2026-04-29 19:35 | 35.91071 | 12.49943 | 35039 ft | 526 kts | 84° |
| 2026-04-29 19:35 | 35.91794 | 12.58924 | 35040 ft | 526 kts | 84° |
| 2026-04-29 19:36 | 35.92520 | 12.67903 | 35043 ft | 526 kts | 84° |
| 2026-04-29 19:36 | 35.93233 | 12.76883 | 35038 ft | 526 kts | 85° |
| 2026-04-29 19:37 | 35.93934 | 12.85792 | 35042 ft | 525 kts | 84° |
| 2026-04-29 19:37 | 35.94640 | 12.94807 | 35056 ft | 525 kts | 84° |
| 2026-04-29 19:38 | 35.95330 | 13.03774 | 35038 ft | 525 kts | 84° |
| 2026-04-29 19:38 | 35.96018 | 13.12746 | 35039 ft | 524 kts | 85° |
| 2026-04-29 19:39 | 35.96693 | 13.21645 | 35052 ft | 524 kts | 84° |
| 2026-04-29 19:39 | 35.97369 | 13.30656 | 35045 ft | 523 kts | 84° |
| 2026-04-29 19:40 | 35.98032 | 13.39542 | 35053 ft | 523 kts | 84° |
| 2026-04-29 19:40 | 35.98690 | 13.48486 | 35055 ft | 523 kts | 85° |
| 2026-04-29 19:41 | 35.99338 | 13.57433 | 35056 ft | 523 kts | 84° |
| 2026-04-29 19:41 | 35.99981 | 13.66375 | 35053 ft | 524 kts | 84° |
| 2026-04-29 19:42 | 36.00619 | 13.75325 | 35049 ft | 524 kts | 84° |
| 2026-04-29 19:42 | 36.01255 | 13.84312 | 35053 ft | 524 kts | 84° |
| 2026-04-29 19:43 | 36.01881 | 13.93256 | 35055 ft | 523 kts | 84° |
| 2026-04-29 19:43 | 36.02500 | 14.02199 | 35061 ft | 523 kts | 84° |
| 2026-04-29 19:44 | 36.03111 | 14.11159 | 35059 ft | 523 kts | 84° |
| 2026-04-29 19:44 | 36.03668 | 14.20118 | 35054 ft | 523 kts | 89° |
| 2026-04-29 19:45 | 36.03340 | 14.29069 | 35065 ft | 522 kts | 93° |
| 2026-04-29 19:45 | 36.02916 | 14.38020 | 35061 ft | 521 kts | 93° |
| 2026-04-29 19:46 | 36.02495 | 14.46961 | 35063 ft | 521 kts | 93° |
| 2026-04-29 19:46 | 36.02069 | 14.55901 | 35057 ft | 521 kts | 94° |
| 2026-04-29 19:47 | 36.01632 | 14.64836 | 35059 ft | 521 kts | 94° |
| 2026-04-29 19:47 | 36.01190 | 14.73764 | 35060 ft | 521 kts | 94° |
| 2026-04-29 19:48 | 36.00739 | 14.82693 | 35061 ft | 521 kts | 94° |
| 2026-04-29 19:48 | 36.00282 | 14.91625 | 35060 ft | 521 kts | 94° |
| 2026-04-29 19:49 | 35.99826 | 15.00498 | 35070 ft | 521 kts | 94° |
| 2026-04-29 19:49 | 35.99354 | 15.09472 | 35073 ft | 521 kts | 94° |
| 2026-04-29 19:50 | 35.98878 | 15.18424 | 35069 ft | 521 kts | 94° |
| 2026-04-29 19:50 | 35.98394 | 15.27294 | 35076 ft | 521 kts | 94° |
| 2026-04-29 19:51 | 35.97904 | 15.36221 | 35073 ft | 522 kts | 93° |
| 2026-04-29 19:51 | 35.97406 | 15.45225 | 35073 ft | 522 kts | 94° |
| 2026-04-29 19:52 | 35.96902 | 15.54088 | 35077 ft | 522 kts | 94° |
| 2026-04-29 19:52 | 35.96392 | 15.63044 | 35081 ft | 523 kts | 94° |
| 2026-04-29 19:53 | 35.95879 | 15.71950 | 35063 ft | 524 kts | 94° |
| 2026-04-29 19:53 | 35.95359 | 15.80830 | 35068 ft | 525 kts | 94° |
| 2026-04-29 19:54 | 35.94558 | 15.94326 | 35077 ft | 526 kts | 94° |
| 2026-04-29 19:54 | 35.94019 | 16.03328 | 35074 ft | 526 kts | 94° |
| 2026-04-29 19:55 | 35.93477 | 16.12333 | 35084 ft | 526 kts | 94° |
| 2026-04-29 19:55 | 35.92916 | 16.21332 | 35090 ft | 526 kts | 94° |
| 2026-04-29 19:56 | 35.92348 | 16.30338 | 35092 ft | 527 kts | 94° |
| 2026-04-29 19:56 | 35.91778 | 16.39343 | 35096 ft | 527 kts | 94° |
| 2026-04-29 19:57 | 35.91299 | 16.46840 | 35091 ft | 527 kts | 94° |
| 2026-04-29 19:57 | 35.90609 | 16.57383 | 35091 ft | 528 kts | 94° |
| 2026-04-29 19:58 | 35.90010 | 16.66418 | 35097 ft | 528 kts | 94° |
| 2026-04-29 19:58 | 35.89406 | 16.75445 | 35095 ft | 528 kts | 94° |
| 2026-04-29 19:59 | 35.88805 | 16.84460 | 35098 ft | 528 kts | 94° |
| 2026-04-29 19:59 | 35.88193 | 16.93488 | 35099 ft | 528 kts | 94° |
| 2026-04-29 20:00 | 35.87570 | 17.02516 | 35100 ft | 528 kts | 94° |
| 2026-04-29 20:00 | 35.86945 | 17.11539 | 35107 ft | 528 kts | 94° |
| 2026-04-29 20:01 | 35.86323 | 17.20557 | 35106 ft | 528 kts | 94° |
| 2026-04-29 20:01 | 35.85681 | 17.29572 | 35105 ft | 528 kts | 94° |
| 2026-04-29 20:02 | 35.85140 | 17.37061 | 35104 ft | 528 kts | 94° |
| 2026-04-29 20:02 | 35.84601 | 17.44563 | 35107 ft | 528 kts | 94° |
| 2026-04-29 20:03 | 35.83845 | 17.55091 | 35108 ft | 528 kts | 94° |
| 2026-04-29 20:03 | 35.83185 | 17.64093 | 35107 ft | 528 kts | 94° |
| 2026-04-29 20:04 | 35.82505 | 17.73096 | 35106 ft | 528 kts | 94° |
| 2026-04-29 20:04 | 35.81827 | 17.82104 | 35108 ft | 528 kts | 94° |
| 2026-04-29 20:05 | 35.81143 | 17.91107 | 35111 ft | 528 kts | 94° |
| 2026-04-29 20:05 | 35.80446 | 18.00106 | 35111 ft | 528 kts | 95° |
| 2026-04-29 20:06 | 35.79752 | 18.09113 | 35109 ft | 528 kts | 95° |
| 2026-04-29 20:06 | 35.79088 | 18.18115 | 35108 ft | 528 kts | 90° |
| 2026-04-29 20:07 | 35.79555 | 18.27078 | 35112 ft | 525 kts | 81° |
| 2026-04-29 20:07 | 35.80318 | 18.36039 | 35113 ft | 525 kts | 82° |
| 2026-04-29 20:08 | 35.80935 | 18.43469 | 35125 ft | 525 kts | 82° |
| 2026-04-29 20:08 | 35.81783 | 18.53907 | 35113 ft | 526 kts | 82° |
| 2026-04-29 20:09 | 35.82517 | 18.62863 | 35112 ft | 526 kts | 82° |
| 2026-04-29 20:09 | 35.83248 | 18.71849 | 35110 ft | 526 kts | 82° |
| 2026-04-29 20:10 | 35.83957 | 18.80764 | 35114 ft | 526 kts | 82° |
| 2026-04-29 20:10 | 35.84663 | 18.89735 | 35114 ft | 526 kts | 82° |
| 2026-04-29 20:11 | 35.85370 | 18.98724 | 35115 ft | 526 kts | 82° |
| 2026-04-29 20:11 | 35.86071 | 19.07763 | 35115 ft | 526 kts | 82° |
| 2026-04-29 20:12 | 35.86756 | 19.16675 | 35122 ft | 526 kts | 82° |
| 2026-04-29 20:12 | 35.87451 | 19.25656 | 35120 ft | 526 kts | 82° |
| 2026-04-29 20:13 | 35.88133 | 19.34631 | 35138 ft | 526 kts | 82° |
| 2026-04-29 20:13 | 35.88793 | 19.43614 | 35128 ft | 526 kts | 82° |
| 2026-04-29 20:14 | 35.89455 | 19.52589 | 35122 ft | 525 kts | 81° |
| 2026-04-29 20:14 | 35.90112 | 19.61546 | 35120 ft | 525 kts | 82° |
| 2026-04-29 20:15 | 35.90752 | 19.70519 | 35122 ft | 525 kts | 82° |
| 2026-04-29 20:15 | 35.91397 | 19.79484 | 35121 ft | 525 kts | 82° |
| 2026-04-29 20:16 | 35.92040 | 19.88443 | 35124 ft | 525 kts | 82° |
| 2026-04-29 20:16 | 35.92673 | 19.97417 | 35124 ft | 525 kts | 82° |
| 2026-04-29 20:17 | 35.93290 | 20.06388 | 35123 ft | 525 kts | 82° |
| 2026-04-29 20:17 | 35.93898 | 20.15367 | 35125 ft | 525 kts | 82° |
| 2026-04-29 20:18 | 35.94505 | 20.24332 | 35122 ft | 525 kts | 82° |
| 2026-04-29 20:18 | 35.95111 | 20.33250 | 35147 ft | 525 kts | 82° |
| 2026-04-29 20:19 | 35.95708 | 20.42219 | 35137 ft | 524 kts | 82° |
| 2026-04-29 20:19 | 35.96299 | 20.51196 | 35138 ft | 524 kts | 82° |
| 2026-04-29 20:20 | 35.96880 | 20.60157 | 35131 ft | 524 kts | 82° |
| 2026-04-29 20:20 | 35.97447 | 20.69097 | 35129 ft | 524 kts | 82° |
| 2026-04-29 20:21 | 35.98013 | 20.78066 | 35129 ft | 523 kts | 82° |
| 2026-04-29 20:21 | 35.98579 | 20.87036 | 35133 ft | 523 kts | 82° |
| 2026-04-29 20:22 | 35.99133 | 20.95985 | 35125 ft | 523 kts | 82° |
| 2026-04-29 20:22 | 35.99677 | 21.04966 | 35124 ft | 523 kts | 82° |
| 2026-04-29 20:23 | 36.00214 | 21.13909 | 35123 ft | 523 kts | 82° |
| 2026-04-29 20:23 | 36.00741 | 21.22871 | 35127 ft | 523 kts | 82° |
| 2026-04-29 20:24 | 36.01261 | 21.31829 | 35141 ft | 522 kts | 83° |
| 2026-04-29 20:24 | 36.01778 | 21.40746 | 35133 ft | 520 kts | 82° |
| 2026-04-29 20:25 | 36.02298 | 21.49645 | 35134 ft | 519 kts | 82° |
| 2026-04-29 20:25 | 36.02801 | 21.58533 | 35131 ft | 519 kts | 83° |
| 2026-04-29 20:26 | 36.03300 | 21.67417 | 35125 ft | 518 kts | 83° |
| 2026-04-29 20:26 | 36.03795 | 21.76312 | 35125 ft | 518 kts | 83° |
| 2026-04-29 20:27 | 36.04200 | 21.83692 | 35120 ft | 518 kts | 83° |
| 2026-04-29 20:27 | 36.04758 | 21.94068 | 35121 ft | 518 kts | 83° |
| 2026-04-29 20:28 | 36.05229 | 22.02965 | 35117 ft | 518 kts | 83° |
| 2026-04-29 20:28 | 36.05677 | 22.11846 | 35117 ft | 518 kts | 83° |
| 2026-04-29 20:29 | 36.06126 | 22.20746 | 35126 ft | 518 kts | 83° |
| 2026-04-29 20:29 | 36.06575 | 22.29619 | 35130 ft | 517 kts | 83° |
| 2026-04-29 20:30 | 36.07028 | 22.38468 | 35129 ft | 516 kts | 83° |
| 2026-04-29 20:30 | 36.07467 | 22.47312 | 35131 ft | 515 kts | 83° |
| 2026-04-29 20:31 | 36.07889 | 22.56152 | 35122 ft | 514 kts | 83° |
| 2026-04-29 20:31 | 36.08310 | 22.64974 | 35127 ft | 514 kts | 83° |
| 2026-04-29 20:32 | 36.08725 | 22.73777 | 35122 ft | 513 kts | 83° |
| 2026-04-29 20:32 | 36.09062 | 22.81105 | 35123 ft | 513 kts | 84° |
| 2026-04-29 20:33 | 36.09525 | 22.91338 | 35128 ft | 513 kts | 84° |
| 2026-04-29 20:33 | 36.09911 | 23.00135 | 35125 ft | 512 kts | 84° |
| 2026-04-29 20:34 | 36.10301 | 23.08918 | 35119 ft | 512 kts | 84° |
| 2026-04-29 20:34 | 36.10687 | 23.17712 | 35120 ft | 512 kts | 84° |
| 2026-04-29 20:35 | 36.11064 | 23.26493 | 35118 ft | 511 kts | 84° |
| 2026-04-29 20:35 | 36.11430 | 23.35275 | 35111 ft | 511 kts | 84° |
| 2026-04-29 20:36 | 36.11901 | 23.44045 | 35115 ft | 508 kts | 77° |
| 2026-04-29 20:36 | 36.13977 | 23.52243 | 35114 ft | 495 kts | 58° |
| 2026-04-29 20:37 | 36.17752 | 23.59196 | 35113 ft | 484 kts | 46° |
| 2026-04-29 20:37 | 36.21873 | 23.65802 | 35109 ft | 485 kts | 46° |
| 2026-04-29 20:38 | 36.25987 | 23.72427 | 35120 ft | 485 kts | 46° |
| 2026-04-29 20:38 | 36.30090 | 23.79053 | 35119 ft | 484 kts | 46° |
| 2026-04-29 20:39 | 36.34194 | 23.85684 | 35118 ft | 484 kts | 47° |
| 2026-04-29 20:39 | 36.38287 | 23.92311 | 35118 ft | 484 kts | 47° |
| 2026-04-29 20:40 | 36.42363 | 23.98943 | 35124 ft | 483 kts | 47° |
| 2026-04-29 20:40 | 36.46369 | 24.05465 | 34658 ft | 477 kts | 47° |
| 2026-04-29 20:41 | 36.48398 | 24.08763 | 33740 ft | 482 kts | 48° |
| 2026-04-29 20:41 | 36.50434 | 24.12077 | 32907 ft | 482 kts | 49° |
| 2026-04-29 20:41 | 36.52457 | 24.15379 | 32269 ft | 479 kts | 49° |
| 2026-04-29 20:41 | 36.54467 | 24.18666 | 31695 ft | 474 kts | 49° |
| 2026-04-29 20:42 | 36.56450 | 24.21911 | 31150 ft | 468 kts | 49° |
| 2026-04-29 20:42 | 36.58404 | 24.25103 | 30393 ft | 461 kts | 49° |
| 2026-04-29 20:42 | 36.60333 | 24.28254 | 29535 ft | 454 kts | 49° |
| 2026-04-29 20:42 | 36.62231 | 24.31360 | 28665 ft | 447 kts | 50° |
| 2026-04-29 20:43 | 36.64098 | 24.34425 | 27818 ft | 441 kts | 50° |
| 2026-04-29 20:43 | 36.65935 | 24.37444 | 26984 ft | 435 kts | 50° |
| 2026-04-29 20:43 | 36.67746 | 24.40417 | 26082 ft | 427 kts | 50° |
| 2026-04-29 20:43 | 36.69529 | 24.43348 | 25142 ft | 420 kts | 50° |
| 2026-04-29 20:44 | 36.71264 | 24.46208 | 24527 ft | 407 kts | 51° |
| 2026-04-29 20:44 | 36.72948 | 24.48988 | 24094 ft | 397 kts | 51° |
| 2026-04-29 20:44 | 36.74597 | 24.51705 | 23642 ft | 390 kts | 51° |
| 2026-04-29 20:44 | 36.76212 | 24.54331 | 23156 ft | 382 kts | 50° |
| 2026-04-29 20:45 | 36.77832 | 24.56900 | 22723 ft | 373 kts | 50° |
| 2026-04-29 20:45 | 36.79428 | 24.59401 | 22297 ft | 365 kts | 50° |
| 2026-04-29 20:45 | 36.80995 | 24.61848 | 21876 ft | 358 kts | 50° |
| 2026-04-29 20:45 | 36.82532 | 24.64253 | 21455 ft | 351 kts | 50° |
| 2026-04-29 20:46 | 36.84036 | 24.66617 | 21016 ft | 345 kts | 50° |
| 2026-04-29 20:46 | 36.85519 | 24.68959 | 20617 ft | 343 kts | 50° |
| 2026-04-29 20:46 | 36.86993 | 24.71294 | 20199 ft | 342 kts | 50° |
| 2026-04-29 20:46 | 36.88457 | 24.73617 | 19789 ft | 340 kts | 50° |
| 2026-04-29 20:47 | 36.89424 | 24.75156 | 19515 ft | 339 kts | 50° |
| 2026-04-29 20:47 | 36.90879 | 24.77473 | 19096 ft | 338 kts | 50° |
| 2026-04-29 20:47 | 36.92331 | 24.79781 | 18683 ft | 337 kts | 50° |
| 2026-04-29 20:47 | 36.93777 | 24.82083 | 18247 ft | 337 kts | 50° |
| 2026-04-29 20:48 | 36.95220 | 24.84376 | 17818 ft | 335 kts | 50° |
| 2026-04-29 20:48 | 36.96655 | 24.86660 | 17406 ft | 333 kts | 50° |
| 2026-04-29 20:48 | 36.98078 | 24.88929 | 17009 ft | 330 kts | 50° |
| 2026-04-29 20:48 | 36.99489 | 24.91185 | 16609 ft | 328 kts | 50° |
| 2026-04-29 20:49 | 37.00889 | 24.93426 | 16217 ft | 327 kts | 50° |
| 2026-04-29 20:49 | 37.02271 | 24.95632 | 15829 ft | 325 kts | 50° |
| 2026-04-29 20:49 | 37.03681 | 24.97878 | 15434 ft | 324 kts | 50° |
| 2026-04-29 20:49 | 37.05065 | 25.00080 | 15030 ft | 323 kts | 50° |
| 2026-04-29 20:50 | 37.06431 | 25.02261 | 14662 ft | 322 kts | 50° |
| 2026-04-29 20:50 | 37.07794 | 25.04443 | 14272 ft | 321 kts | 50° |
| 2026-04-29 20:50 | 37.09170 | 25.06650 | 13873 ft | 321 kts | 50° |
| 2026-04-29 20:50 | 37.10542 | 25.08852 | 13447 ft | 320 kts | 50° |
| 2026-04-29 20:51 | 37.11907 | 25.11044 | 13041 ft | 318 kts | 50° |
| 2026-04-29 20:51 | 37.13264 | 25.13222 | 12643 ft | 316 kts | 50° |
| 2026-04-29 20:51 | 37.14616 | 25.15382 | 12247 ft | 314 kts | 50° |
| 2026-04-29 20:51 | 37.15973 | 25.17526 | 11841 ft | 313 kts | 50° |
| 2026-04-29 20:52 | 37.17326 | 25.19659 | 11439 ft | 312 kts | 50° |
| 2026-04-29 20:52 | 37.18677 | 25.21777 | 11048 ft | 310 kts | 49° |
| 2026-04-29 20:52 | 37.20222 | 25.23637 | 10633 ft | 307 kts | 35° |
| 2026-04-29 20:52 | 37.22044 | 25.24984 | 10303 ft | 302 kts | 22° |
| 2026-04-29 20:53 | 37.23983 | 25.25848 | 10114 ft | 291 kts | 17° |
| 2026-04-29 20:53 | 37.25874 | 25.26646 | 9883 ft | 283 kts | 18° |
| 2026-04-29 20:53 | 37.27744 | 25.27448 | 9750 ft | 284 kts | 18° |
| 2026-04-29 20:53 | 37.29611 | 25.28253 | 9464 ft | 284 kts | 18° |
| 2026-04-29 20:54 | 37.33297 | 25.29839 | 8578 ft | 280 kts | 18° |
| 2026-04-29 20:54 | 37.35144 | 25.30634 | 8123 ft | 281 kts | 18° |
| 2026-04-29 20:54 | 37.36997 | 25.31431 | 7647 ft | 282 kts | 18° |
| 2026-04-29 20:55 | 37.38855 | 25.32227 | 7252 ft | 281 kts | 18° |
| 2026-04-29 20:55 | 37.40702 | 25.33051 | 6839 ft | 281 kts | 24° |
| 2026-04-29 20:55 | 37.42214 | 25.34487 | 6542 ft | 277 kts | 52° |
| 2026-04-29 20:55 | 37.42981 | 25.36677 | 6111 ft | 278 kts | 82° |
| 2026-04-29 20:56 | 37.42772 | 25.39074 | 5675 ft | 279 kts | 111° |
| 2026-04-29 20:56 | 37.41655 | 25.41038 | 5260 ft | 279 kts | 141° |
| 2026-04-29 20:56 | 37.41579 | 25.41115 | 5241 ft | 279 kts | 143° |
| 2026-04-29 20:56 | 37.41573 | 25.41121 | 5239 ft | 279 kts | 143° |
| 2026-04-29 20:57 | 37.40626 | 25.41855 | 4815 ft | 284 kts | 159° |
| 2026-04-29 20:57 | 37.38695 | 25.42096 | 4456 ft | 279 kts | 191° |
| 2026-04-29 20:57 | 37.36919 | 25.41199 | 4089 ft | 275 kts | 211° |
| 2026-04-29 20:57 | 37.35205 | 25.40168 | 3842 ft | 268 kts | 198° |
| 2026-04-29 20:58 | 37.33429 | 25.39783 | 3771 ft | 251 kts | 181° |
| 2026-04-29 20:58 | 37.31747 | 25.40019 | 3734 ft | 238 kts | 165° |
| 2026-04-29 20:58 | 37.30226 | 25.40669 | 3596 ft | 225 kts | 160° |
| 2026-04-29 20:58 | 37.28792 | 25.41316 | 3501 ft | 220 kts | 160° |
| 2026-04-29 20:59 | 37.27423 | 25.42190 | 3265 ft | 217 kts | 132° |
| 2026-04-29 20:59 | 37.26879 | 25.43796 | 3227 ft | 191 kts | 86° |
| 2026-04-29 20:59 | 37.27356 | 25.45080 | 3191 ft | 167 kts | 36° |
| 2026-04-29 20:59 | 37.28406 | 25.45309 | 3158 ft | 154 kts | 338° |
| 2026-04-29 21:00 | 37.29187 | 25.44460 | 3123 ft | 151 kts | 312° |
| 2026-04-29 21:00 | 37.29877 | 25.43478 | 3056 ft | 149 kts | 312° |
| 2026-04-29 21:00 | 37.30571 | 25.42492 | 2917 ft | 148 kts | 312° |
| 2026-04-29 21:00 | 37.31253 | 25.41523 | 2760 ft | 148 kts | 312° |
| 2026-04-29 21:01 | 37.31931 | 25.40559 | 2612 ft | 147 kts | 312° |
| 2026-04-29 21:01 | 37.32675 | 25.39689 | 2437 ft | 146 kts | 328° |
| 2026-04-29 21:01 | 37.33599 | 25.39202 | 2282 ft | 146 kts | 340° |
| 2026-04-29 21:01 | 37.34556 | 25.38783 | 2085 ft | 145 kts | 340° |
| 2026-04-29 21:02 | 37.35507 | 25.38365 | 1897 ft | 145 kts | 340° |
| 2026-04-29 21:02 | 37.36455 | 25.37949 | 1700 ft | 144 kts | 340° |
| 2026-04-29 21:02 | 37.37401 | 25.37533 | 1513 ft | 144 kts | 340° |
| 2026-04-29 21:02 | 37.38347 | 25.37117 | 1327 ft | 144 kts | 340° |
| 2026-04-29 21:03 | 37.39292 | 25.36700 | 1138 ft | 144 kts | 340° |
| 2026-04-29 21:03 | 37.40231 | 25.36283 | 965 ft | 143 kts | 339° |
| 2026-04-29 21:03 | 37.41169 | 25.35853 | 758 ft | 143 kts | 339° |
| 2026-04-29 21:03 | 37.42110 | 25.35452 | 569 ft | 143 kts | 340° |
| 2026-04-29 21:04 | 37.43033 | 25.35035 | 414 ft | 136 kts | 340° |
| 2026-04-29 21:04 | 37.43776 | 25.34707 | 411 ft | 75 kts | 340° |
| 2026-04-29 21:04 | 37.44096 | 25.34564 | 408 ft | 26 kts | 341° |
| 2026-04-29 21:04 | 37.44237 | 25.34487 | 406 ft | 14 kts | 311° |
| 2026-04-29 21:05 | 37.44281 | 25.34495 | 405 ft | 4 kts | 112° |
| 2026-04-29 21:05 | 37.44238 | 25.34512 | 406 ft | 10 kts | 162° |
| 2026-04-29 21:05 | 37.44152 | 25.34546 | 408 ft | 14 kts | 162° |
| 2026-04-29 21:05 | 37.44065 | 25.34580 | 406 ft | 12 kts | 162° |
| 2026-04-29 21:06 | 37.43994 | 25.34610 | 410 ft | 9 kts | 161° |
| 2026-04-29 21:06 | 37.43928 | 25.34638 | 411 ft | 11 kts | 161° |
| 2026-04-29 21:06 | 37.43847 | 25.34673 | 412 ft | 14 kts | 161° |
| 2026-04-29 21:06 | 37.43747 | 25.34717 | 409 ft | 16 kts | 161° |
| 2026-04-29 21:07 | 37.43659 | 25.34704 | 410 ft | 9 kts | 214° |
| 2026-04-29 21:07 | 37.43598 | 25.34678 | 408 ft | 9 kts | 176° |
| 2026-04-29 21:07 | 37.43560 | 25.34667 | 407 ft | 8 kts | 225° |
| 2026-04-29 21:07 | 37.43550 | 25.34648 | 407 ft | 2 kts | 244° |
| 2026-04-29 21:08 | 37.43546 | 25.34635 | 407 ft | 1 kts | 247° |